Horicon, New York
Current Conditions -  °F | °C
As of 8:53 AM on Saturday 22 Nov 2014 (Local Time) from KGFL Reporting Station
Clear Clear  
Wind Chill: 14°   Ceiling: Unl
Heat Index: 24°   Visibility: 10mi
Dew Point: 14°   Wind: 10mph
Humidity: 65%   Direction: 180°S
Pressure: 30.33"   Gusts: NA
Location:  43.7029°N, 73.6844°W
Report Text: KGFL 221353Z AUTO 18009KT 10SM CLR M04/M10 A3033 RMK AO2 SLP281 T10441100
Loading
Personal Weather Stations






























Interactive Weather Map New forecast layout! Learn more

10-Day Weather Forecast

Advertisements
Track Severe Weather on mobile